Time;durP1;ratioP1;P1;durP2;ratioP2;P2;SDS_P1;SDS_P2;PMS_P1;PMS_P2;Temp;Humidity;BMP_temperature;BMP_pressure;BME280_temperature;BME280_humidity;BME280_pressure;Samples;Min_cycle;Max_cycle;Signal;HPM_P1;HPM_P2
2021/10/04 00:01:13;;;;;;;5.55;5.00;;;19.20;99.90;;;;;;5012025;28;20484;-75
2021/10/04 00:03:39;;;;;;;5.28;4.78;;;19.10;99.90;;;;;;5011944;28;20021;-75
2021/10/04 00:06:06;;;;;;;5.38;4.82;;;19.10;99.90;;;;;;5011905;28;20021;-76
2021/10/04 00:08:32;;;;;;;5.32;4.70;;;19.10;99.90;;;;;;5012027;28;20033;-76
2021/10/04 00:10:58;;;;;;;5.32;4.38;;;19.10;99.90;;;;;;5011918;28;20022;-76
2021/10/04 00:13:24;;;;;;;6.78;4.55;;;19.10;99.90;;;;;;5011917;28;20041;-76
2021/10/04 00:15:51;;;;;;;5.18;4.30;;;19.10;99.90;;;;;;5011775;28;20108;-76
2021/10/04 00:18:17;;;;;;;5.93;4.65;;;19.10;99.90;;;;;;5010553;28;20033;-75
2021/10/04 00:20:43;;;;;;;5.88;4.20;;;19.10;99.90;;;;;;5011738;28;20358;-75
2021/10/04 00:23:09;;;;;;;7.45;5.40;;;19.00;99.90;;;;;;5003046;28;20524;-76
2021/10/04 00:25:35;;;;;;;5.45;4.55;;;19.10;99.90;;;;;;4992182;28;20026;-76
2021/10/04 00:28:01;;;;;;;6.45;4.70;;;19.00;99.90;;;;;;4990768;28;20085;-75
2021/10/04 00:30:27;;;;;;;5.05;4.53;;;19.10;99.90;;;;;;4992174;28;20026;-75
2021/10/04 00:32:53;;;;;;;8.07;4.43;;;19.10;99.90;;;;;;4991860;28;20034;-75
2021/10/04 00:35:21;;;;;;;6.35;4.68;;;19.10;99.90;;;;;;5010619;28;20088;-75
2021/10/04 00:37:48;;;;;;;5.85;4.45;;;19.10;99.90;;;;;;5011707;28;20071;-76
2021/10/04 00:40:22;;;;;;;6.38;4.82;;;19.10;99.90;;;;;;5010338;28;20054;-76
2021/10/04 00:42:50;;;;;;;6.97;5.03;;;19.20;99.90;;;;;;5011542;28;20072;-75
2021/10/04 00:45:17;;;;;;;5.63;4.75;;;19.20;99.90;;;;;;5026637;28;20113;-75
2021/10/04 00:47:43;;;;;;;8.80;4.88;;;19.30;99.90;;;;;;5011596;28;20029;-76
2021/10/04 00:50:10;;;;;;;5.60;4.30;;;19.30;99.90;;;;;;5011671;28;20083;-76
2021/10/04 00:52:36;;;;;;;4.28;3.83;;;19.30;99.90;;;;;;5011320;28;20034;-75
2021/10/04 00:55:04;;;;;;;4.82;4.38;;;19.30;99.90;;;;;;5011555;28;20518;-76
2021/10/04 00:57:30;;;;;;;5.82;4.95;;;19.30;99.90;;;;;;5011542;28;20022;-75
2021/10/04 00:59:56;;;;;;;9.18;4.43;;;19.30;99.90;;;;;;5015451;28;20379;-76
2021/10/04 01:02:22;;;;;;;6.97;4.57;;;19.30;99.90;;;;;;5013809;28;20165;-76
2021/10/04 01:04:48;;;;;;;6.13;4.75;;;19.30;99.90;;;;;;5015424;28;20087;-76
2021/10/04 01:07:13;;;;;;;7.78;4.22;;;19.30;99.90;;;;;;5015233;28;20053;-76
2021/10/04 01:09:39;;;;;;;6.70;4.72;;;19.30;99.90;;;;;;5013977;28;20100;-76
2021/10/04 01:12:06;;;;;;;5.15;4.32;;;19.30;99.90;;;;;;5014973;28;20455;-76
2021/10/04 01:14:31;;;;;;;9.25;5.32;;;19.30;99.90;;;;;;5014682;28;20376;-76
2021/10/04 01:16:57;;;;;;;7.70;4.75;;;19.30;99.90;;;;;;5030113;28;20065;-76
2021/10/04 01:19:23;;;;;;;4.72;4.28;;;19.30;99.90;;;;;;5015180;28;20065;-76
2021/10/04 01:21:50;;;;;;;10.70;4.45;;;19.30;99.90;;;;;;5015071;28;20083;-76
2021/10/04 01:24:17;;;;;;;6.25;4.60;;;19.30;99.90;;;;;;5015046;28;20109;-76
2021/10/04 01:26:44;;;;;;;6.47;4.25;;;19.30;99.90;;;;;;5014948;28;20040;-76
2021/10/04 01:29:10;;;;;;;4.97;4.47;;;19.30;99.90;;;;;;5014843;28;20217;-76
2021/10/04 01:31:36;;;;;;;8.82;4.60;;;19.30;99.90;;;;;;5014708;28;20033;-76
2021/10/04 01:34:04;;;;;;;7.80;5.10;;;19.30;99.90;;;;;;5014754;28;20587;-76
2021/10/04 01:36:31;;;;;;;8.43;4.45;;;19.30;99.90;;;;;;5014752;28;20014;-75
2021/10/04 01:38:58;;;;;;;4.97;4.32;;;19.30;99.90;;;;;;5014553;28;20488;-76
2021/10/04 01:41:25;;;;;;;6.28;5.00;;;19.30;99.90;;;;;;5013380;28;20380;-76
2021/10/04 01:43:52;;;;;;;6.20;4.80;;;19.30;99.90;;;;;;5013320;28;20072;-76
2021/10/04 01:46:19;;;;;;;6.28;4.70;;;19.30;99.90;;;;;;5014468;28;20022;-76
2021/10/04 01:48:45;;;;;;;6.25;5.10;;;19.30;99.90;;;;;;5014634;28;20022;-76
2021/10/04 01:51:11;;;;;;;7.75;4.97;;;19.30;99.90;;;;;;5013059;28;20113;-76
2021/10/04 01:53:37;;;;;;;5.53;4.65;;;19.30;99.90;;;;;;5014200;28;20097;-75
2021/10/04 01:56:03;;;;;;;7.88;5.03;;;19.30;99.90;;;;;;5014441;28;20026;-76
2021/10/04 01:58:30;;;;;;;7.32;4.20;;;19.30;99.90;;;;;;5014364;28;20053;-76
2021/10/04 02:01:00;;;;;;;7.72;4.65;;;19.30;99.90;;;;;;5014101;28;20391;-76
2021/10/04 02:03:27;;;;;;;4.88;4.45;;;19.30;99.90;;;;;;5014136;28;20022;-76
2021/10/04 02:05:52;;;;;;;8.25;4.95;;;19.30;99.90;;;;;;5012923;28;20061;-76
2021/10/04 02:08:18;;;;;;;5.10;4.35;;;19.30;99.90;;;;;;5013820;28;20065;-76
2021/10/04 02:10:46;;;;;;;4.63;4.22;;;19.30;99.90;;;;;;5013832;28;20040;-76
2021/10/04 02:13:12;;;;;;;7.53;4.93;;;19.30;99.90;;;;;;5012768;28;20026;-76
2021/10/04 02:15:41;;;;;;;9.15;4.75;;;19.30;99.90;;;;;;5013852;28;20050;-76
2021/10/04 02:18:07;;;;;;;7.45;4.90;;;19.30;99.90;;;;;;5013890;28;20507;-76
2021/10/04 02:20:37;;;;;;;6.13;4.03;;;19.30;99.90;;;;;;5013840;28;20030;-76
2021/10/04 02:23:06;;;;;;;6.78;4.47;;;19.30;99.90;;;;;;5013908;28;20029;-76
2021/10/04 02:25:34;;;;;;;5.25;4.38;;;19.30;99.90;;;;;;5012544;28;20026;-76
2021/10/04 02:28:00;;;;;;;5.90;4.15;;;19.30;99.90;;;;;;5009664;28;20427;-76
2021/10/04 02:30:26;;;;;;;5.95;4.50;;;19.30;99.90;;;;;;4994032;28;20091;-76
2021/10/04 02:32:52;;;;;;;5.00;4.45;;;19.30;99.90;;;;;;4994134;28;20480;-76
2021/10/04 02:35:19;;;;;;;5.78;4.38;;;19.30;99.90;;;;;;5011130;28;20022;-75
2021/10/04 02:37:46;;;;;;;6.85;4.88;;;19.20;99.90;;;;;;5013483;28;20049;-76
2021/10/04 02:40:13;;;;;;;4.53;4.13;;;19.20;99.90;;;;;;5013569;28;20021;-76
2021/10/04 02:42:40;;;;;;;6.50;4.60;;;19.20;99.90;;;;;;5028608;28;20033;-75
2021/10/04 02:45:07;;;;;;;7.15;3.90;;;19.20;99.90;;;;;;5013350;28;20070;-76
2021/10/04 02:47:33;;;;;;;4.90;4.20;;;19.10;99.90;;;;;;5013451;28;20438;-76
2021/10/04 02:49:59;;;;;;;5.07;4.57;;;19.10;99.90;;;;;;5013386;28;20030;-76
2021/10/04 02:52:25;;;;;;;4.65;4.25;;;19.10;99.90;;;;;;5013101;28;20113;-76
2021/10/04 02:54:50;;;;;;;4.85;4.35;;;19.10;99.90;;;;;;5013334;28;20065;-76
2021/10/04 02:57:16;;;;;;;6.22;5.00;;;19.10;99.90;;;;;;5012032;28;20041;-76
2021/10/04 02:59:42;;;;;;;7.25;4.40;;;19.00;99.90;;;;;;5013081;28;20447;-75
2021/10/04 03:02:07;;;;;;;7.18;4.93;;;19.00;99.90;;;;;;5013152;28;20100;-76
2021/10/04 03:04:34;;;;;;;8.13;4.72;;;19.00;99.90;;;;;;5012976;28;20022;-76
2021/10/04 03:06:59;;;;;;;4.78;4.22;;;19.00;99.90;;;;;;5013009;28;20084;-76
2021/10/04 03:09:25;;;;;;;5.93;4.63;;;19.00;99.90;;;;;;5013039;28;20022;-76
2021/10/04 03:11:51;;;;;;;5.05;4.55;;;19.00;99.90;;;;;;5012295;28;20038;-76
2021/10/04 03:14:17;;;;;;;5.72;4.60;;;19.00;99.90;;;;;;5012838;28;20439;-76
2021/10/04 03:16:43;;;;;;;6.40;4.82;;;19.00;99.90;;;;;;5012889;28;20439;-76
2021/10/04 03:19:09;;;;;;;6.03;4.50;;;19.00;99.90;;;;;;5012714;28;20029;-76
2021/10/04 03:21:35;;;;;;;9.18;4.72;;;19.00;99.90;;;;;;5027014;28;20403;-76
2021/10/04 03:24:00;;;;;;;6.03;5.00;;;19.10;99.90;;;;;;5012736;28;20022;-76
2021/10/04 03:26:26;;;;;;;5.88;4.82;;;19.10;99.90;;;;;;5027903;28;20041;-76
2021/10/04 03:28:52;;;;;;;6.32;4.68;;;19.10;99.90;;;;;;5012691;28;20085;-76
2021/10/04 03:31:18;;;;;;;9.88;4.47;;;19.10;99.90;;;;;;5012466;28;20029;-75
2021/10/04 03:33:44;;;;;;;4.88;4.45;;;19.10;99.90;;;;;;5012340;28;20479;-76
2021/10/04 03:36:09;;;;;;;6.68;4.88;;;19.10;99.90;;;;;;5012623;28;20026;-76
2021/10/04 03:38:35;;;;;;;6.00;4.75;;;19.10;99.90;;;;;;5012460;28;20061;-76
2021/10/04 03:41:01;;;;;;;4.60;4.20;;;19.10;99.90;;;;;;5012281;28;20029;-76
2021/10/04 03:43:27;;;;;;;4.78;4.38;;;19.10;99.90;;;;;;5012461;28;20030;-76
2021/10/04 03:45:53;;;;;;;5.00;4.28;;;19.20;99.90;;;;;;5012282;28;20113;-76
2021/10/04 03:48:19;;;;;;;6.70;5.13;;;19.20;99.90;;;;;;5012116;28;20026;-76
2021/10/04 03:50:44;;;;;;;4.80;4.00;;;19.20;99.90;;;;;;5012355;28;20021;-76
2021/10/04 03:53:10;;;;;;;7.68;4.30;;;19.20;99.90;;;;;;5012156;28;20080;-76
2021/10/04 03:55:36;;;;;;;6.20;4.10;;;19.20;99.90;;;;;;5012204;28;20044;-75
2021/10/04 03:58:02;;;;;;;8.18;4.72;;;19.30;99.90;;;;;;5012145;28;20026;-76
2021/10/04 04:00:28;;;;;;;6.45;4.88;;;19.20;99.90;;;;;;5011911;28;20026;-76
2021/10/04 04:02:55;;;;;;;4.80;4.32;;;19.20;99.90;;;;;;5012077;28;20033;-76
2021/10/04 04:05:21;;;;;;;6.68;4.72;;;19.20;99.90;;;;;;5010819;28;20022;-76
2021/10/04 04:07:47;;;;;;;5.57;4.18;;;19.20;99.90;;;;;;5011950;28;20021;-76
2021/10/04 04:10:18;;;;;;;5.97;4.53;;;19.20;99.90;;;;;;5011957;28;20026;-76
2021/10/04 04:12:45;;;;;;;6.63;4.47;;;19.20;99.90;;;;;;5011907;28;20022;-76
2021/10/04 04:15:12;;;;;;;6.07;3.92;;;19.20;99.90;;;;;;5011783;28;20041;-76
2021/10/04 04:17:38;;;;;;;6.43;4.85;;;19.20;99.90;;;;;;5011754;28;20029;-76
2021/10/04 04:20:05;;;;;;;4.55;3.90;;;19.20;99.90;;;;;;5011888;28;20026;-76
2021/10/04 04:22:31;;;;;;;4.90;4.40;;;19.20;99.90;;;;;;5010588;28;20160;-76
2021/10/04 04:24:57;;;;;;;5.38;4.35;;;19.20;99.90;;;;;;5010454;28;20124;-76
2021/10/04 04:27:24;;;;;;;5.03;3.92;;;19.20;99.90;;;;;;5007365;28;20022;-75
2021/10/04 04:29:50;;;;;;;5.03;4.53;;;19.20;99.90;;;;;;5011763;28;20034;-76
2021/10/04 04:32:16;;;;;;;5.88;3.95;;;19.20;99.90;;;;;;5011219;28;20387;-75
2021/10/04 04:34:42;;;;;;;5.95;4.32;;;19.20;99.90;;;;;;5011594;28;20026;-75
2021/10/04 04:37:08;;;;;;;4.45;3.95;;;19.20;99.90;;;;;;5011722;28;20059;-76
2021/10/04 04:39:35;;;;;;;5.57;3.92;;;19.20;99.90;;;;;;5011556;28;20030;-75
2021/10/04 04:42:02;;;;;;;9.07;4.38;;;19.20;99.90;;;;;;5011501;28;20054;-76
2021/10/04 04:44:28;;;;;;;8.15;4.10;;;19.20;99.90;;;;;;5011672;28;20160;-76
2021/10/04 04:46:54;;;;;;;6.88;4.35;;;19.10;99.90;;;;;;5011533;28;20113;-76
2021/10/04 04:49:20;;;;;;;6.95;4.80;;;19.10;99.90;;;;;;5011586;28;20030;-76
2021/10/04 04:51:46;;;;;;;6.15;4.63;;;19.10;99.90;;;;;;5010199;28;20026;-75
2021/10/04 04:54:12;;;;;;;4.97;4.13;;;19.10;99.90;;;;;;5010162;28;20446;-76
2021/10/04 04:56:38;;;;;;;4.07;3.55;;;19.00;99.90;;;;;;5010456;28;20479;-76
2021/10/04 04:59:04;;;;;;;5.00;4.35;;;19.00;99.90;;;;;;5009264;28;20029;-75
2021/10/04 05:01:30;;;;;;;6.05;3.95;;;19.00;99.90;;;;;;5011758;28;20411;-76
2021/10/04 05:03:56;;;;;;;7.00;4.53;;;19.00;99.90;;;;;;5005195;28;20122;-76
2021/10/04 05:06:21;;;;;;;5.60;4.32;;;18.90;99.90;;;;;;5000015;28;20100;-76
2021/10/04 05:08:47;;;;;;;4.63;4.18;;;18.90;99.90;;;;;;5001108;28;20026;-76
2021/10/04 05:11:13;;;;;;;11.15;4.07;;;19.00;99.90;;;;;;5000559;28;20026;-76
2021/10/04 05:13:39;;;;;;;5.10;4.07;;;19.00;99.90;;;;;;5015709;28;20033;-75
2021/10/04 05:16:05;;;;;;;7.15;4.50;;;18.90;99.90;;;;;;5005801;28;20048;-75
2021/10/04 05:18:30;;;;;;;3.97;3.45;;;18.90;99.90;;;;;;5009129;28;20056;-75
2021/10/04 05:20:56;;;;;;;7.10;4.28;;;18.90;99.90;;;;;;5009818;28;20017;-75
2021/10/04 05:23:25;;;;;;;8.13;4.07;;;18.90;99.90;;;;;;5000646;28;20422;-75
2021/10/04 05:25:51;;;;;;;4.47;3.75;;;18.90;99.90;;;;;;4999510;28;20062;-75
2021/10/04 05:28:17;;;;;;;4.78;4.28;;;18.80;99.90;;;;;;4998501;28;20026;-75
2021/10/04 05:30:42;;;;;;;5.30;4.03;;;18.80;99.90;;;;;;5000076;28;20068;-75
2021/10/04 05:33:08;;;;;;;5.10;4.05;;;18.80;99.90;;;;;;5000738;28;20480;-76
2021/10/04 05:35:34;;;;;;;5.32;4.55;;;18.80;99.90;;;;;;5006234;28;20436;-75
2021/10/04 05:37:59;;;;;;;7.65;4.25;;;18.80;99.90;;;;;;4999944;28;20034;-76
2021/10/04 05:40:25;;;;;;;5.75;4.57;;;18.80;99.90;;;;;;4998144;28;20018;-76
2021/10/04 05:42:51;;;;;;;5.75;4.43;;;18.80;99.90;;;;;;5014277;28;20030;-76
2021/10/04 05:45:17;;;;;;;7.95;4.20;;;18.80;99.90;;;;;;5003708;28;20364;-76
2021/10/04 05:47:43;;;;;;;5.82;4.05;;;18.80;99.90;;;;;;5002823;28;20084;-76
2021/10/04 05:50:13;;;;;;;10.35;3.90;;;18.80;99.90;;;;;;5003260;28;20022;-75
2021/10/04 05:52:39;;;;;;;4.53;4.13;;;18.80;99.90;;;;;;5002774;28;20022;-75
2021/10/04 05:55:06;;;;;;;6.57;4.55;;;18.70;99.90;;;;;;4995929;28;20049;-75
2021/10/04 05:57:32;;;;;;;7.15;4.38;;;18.70;99.90;;;;;;4995691;28;20027;-75
2021/10/04 05:59:58;;;;;;;6.57;4.50;;;18.70;99.90;;;;;;4995844;28;20034;-75
2021/10/04 06:02:23;;;;;;;4.78;4.30;;;18.70;99.90;;;;;;4995572;28;20102;-75
2021/10/04 06:04:49;;;;;;;6.18;4.47;;;18.70;99.90;;;;;;5009895;28;20506;-78
2021/10/04 06:07:15;;;;;;;5.90;4.63;;;18.70;99.90;;;;;;5015288;28;20021;-78
2021/10/04 06:09:40;;;;;;;5.53;4.43;;;18.70;99.90;;;;;;5013996;28;20030;-78
2021/10/04 06:12:06;;;;;;;6.28;3.97;;;18.80;99.90;;;;;;5014209;28;20030;-78
2021/10/04 06:14:32;;;;;;;4.45;3.95;;;18.80;99.90;;;;;;5014116;28;20046;-78
2021/10/04 06:17:00;;;;;;;6.40;4.03;;;18.80;99.90;;;;;;5013824;28;20121;-78
2021/10/04 06:19:27;;;;;;;9.00;4.47;;;18.80;99.90;;;;;;5030004;28;20487;-78
2021/10/04 06:21:53;;;;;;;7.65;4.00;;;18.80;99.90;;;;;;5015283;28;20061;-78
2021/10/04 06:24:19;;;;;;;6.78;4.28;;;18.80;99.90;;;;;;5015367;28;20080;-78
2021/10/04 06:26:45;;;;;;;6.72;4.00;;;18.80;99.90;;;;;;5014858;28;20061;-78
2021/10/04 06:29:12;;;;;;;5.53;4.38;;;18.90;99.90;;;;;;5015603;28;20049;-78
2021/10/04 06:31:38;;;;;;;5.70;3.97;;;18.90;99.90;;;;;;5015591;28;20040;-78
2021/10/04 06:34:04;;;;;;;7.07;4.60;;;18.90;99.90;;;;;;5015271;28;20022;-78
2021/10/04 06:36:30;;;;;;;7.38;3.95;;;19.00;99.90;;;;;;5015570;28;20018;-78
2021/10/04 06:38:55;;;;;;;5.90;4.38;;;19.00;99.90;;;;;;5015312;28;20030;-78
2021/10/04 06:41:21;;;;;;;8.25;4.00;;;19.00;99.90;;;;;;5015069;28;20030;-78
2021/10/04 06:43:47;;;;;;;5.03;3.88;;;19.00;99.90;;;;;;5015317;28;20029;-77
2021/10/04 06:46:13;;;;;;;5.43;4.00;;;19.10;99.90;;;;;;5015393;28;20030;-78
2021/10/04 06:48:40;;;;;;;6.88;4.05;;;19.20;99.90;;;;;;5014913;28;20112;-77
2021/10/04 06:51:06;;;;;;;5.75;4.10;;;19.20;99.90;;;;;;5013913;28;20032;-77
2021/10/04 06:53:32;;;;;;;5.70;4.25;;;19.20;99.90;;;;;;5013425;28;20373;-77
2021/10/04 06:55:58;;;;;;;7.97;4.53;;;19.30;99.90;;;;;;5012988;28;20219;-78
2021/10/04 06:58:24;;;;;;;5.43;3.88;;;19.30;99.90;;;;;;5012898;28;20511;-78
2021/10/04 07:00:50;;;;;;;5.30;3.85;;;19.40;99.90;;;;;;5013154;28;20014;-78
2021/10/04 07:03:16;;;;;;;7.18;4.32;;;19.40;99.90;;;;;;5012854;28;20061;-78
2021/10/04 07:05:45;;;;;;;4.75;4.03;;;19.40;99.90;;;;;;5012862;28;20108;-78
2021/10/04 07:08:11;;;;;;;5.18;4.38;;;19.40;99.90;;;;;;5013049;28;20026;-77
2021/10/04 07:10:37;;;;;;;8.93;4.30;;;19.50;99.90;;;;;;5013002;28;20472;-78
2021/10/04 07:13:03;;;;;;;7.30;3.70;;;19.50;99.90;;;;;;5011563;28;20535;-78
2021/10/04 07:15:29;;;;;;;6.75;4.22;;;19.60;99.90;;;;;;5012485;28;20042;-78
2021/10/04 07:17:54;;;;;;;4.65;4.20;;;19.70;99.90;;;;;;5028040;28;20030;-77
2021/10/04 07:20:20;;;;;;;6.20;4.28;;;19.70;99.90;;;;;;5012664;28;20029;-76
2021/10/04 07:22:46;;;;;;;4.97;3.83;;;19.80;99.90;;;;;;5008464;28;20088;-77
2021/10/04 07:25:13;;;;;;;7.32;4.22;;;19.90;99.90;;;;;;5008939;28;20037;-77
2021/10/04 07:27:39;;;;;;;5.57;4.60;;;19.90;99.90;;;;;;5008386;28;20018;-77
2021/10/04 07:30:06;;;;;;;6.25;4.00;;;20.00;99.90;;;;;;5008262;28;20030;-77
2021/10/04 07:32:33;;;;;;;7.72;3.97;;;20.00;99.90;;;;;;5008802;28;20113;-78
2021/10/04 07:34:58;;;;;;;6.32;4.50;;;20.00;99.90;;;;;;5007983;28;20026;-77
2021/10/04 07:37:24;;;;;;;9.30;4.63;;;20.00;99.90;;;;;;5007321;28;20395;-78
2021/10/04 07:39:50;;;;;;;7.00;3.83;;;20.00;99.90;;;;;;5008438;28;20014;-77
2021/10/04 07:42:16;;;;;;;6.20;4.07;;;20.10;99.90;;;;;;5024762;28;20060;-77
2021/10/04 07:44:50;;;;;;;7.22;5.15;;;20.20;99.90;;;;;;5012447;28;20037;-77
2021/10/04 07:47:16;;;;;;;9.80;4.00;;;20.30;99.90;;;;;;5012356;28;20053;-77
2021/10/04 07:49:42;;;;;;;5.47;4.43;;;20.50;99.90;;;;;;5012371;28;20392;-78
2021/10/04 07:52:08;;;;;;;8.18;4.63;;;20.60;99.90;;;;;;5011990;28;20014;-78
2021/10/04 07:54:34;;;;;;;5.15;4.25;;;20.70;99.90;;;;;;5012296;28;20026;-77
2021/10/04 07:56:59;;;;;;;4.88;3.90;;;20.90;99.90;;;;;;5012281;28;20014;-77
2021/10/04 07:59:25;;;;;;;5.40;3.78;;;21.00;99.90;;;;;;5012208;28;20037;-77
2021/10/04 08:01:51;;;;;;;5.85;3.55;;;21.00;99.90;;;;;;5012061;28;20033;-77
2021/10/04 08:04:17;;;;;;;3.67;3.28;;;21.00;99.90;;;;;;5012092;28;20037;-77
2021/10/04 08:06:43;;;;;;;5.25;3.78;;;21.00;99.90;;;;;;5011552;28;20022;-77
2021/10/04 08:09:09;;;;;;;3.95;3.22;;;21.00;99.90;;;;;;5012058;28;20040;-77
2021/10/04 08:11:34;;;;;;;6.15;3.58;;;21.00;99.90;;;;;;5011931;28;20022;-77
2021/10/04 08:14:00;;;;;;;3.42;3.13;;;21.10;99.90;;;;;;5011995;28;20029;-77
2021/10/04 08:16:26;;;;;;;3.88;3.38;;;21.10;99.90;;;;;;5011814;28;20073;-77
2021/10/04 08:18:53;;;;;;;6.05;3.75;;;21.10;99.90;;;;;;5011997;28;20038;-78
2021/10/04 08:21:20;;;;;;;8.85;3.17;;;21.20;99.90;;;;;;5011818;28;20109;-77
2021/10/04 08:23:47;;;;;;;7.40;3.42;;;21.20;99.90;;;;;;5027332;28;20041;-77
2021/10/04 08:26:13;;;;;;;5.30;3.95;;;21.20;99.90;;;;;;5026176;28;20040;-77
2021/10/04 08:28:39;;;;;;;3.88;3.20;;;21.20;99.90;;;;;;5012326;28;20064;-77
2021/10/04 08:31:06;;;;;;;5.05;2.83;;;21.10;99.90;;;;;;5022068;28;20456;-77
2021/10/04 08:33:41;;;;;;;3.25;3.00;;;21.20;99.90;;;;;;5001538;28;20033;-76
2021/10/04 08:36:07;;;;;;;6.05;3.38;;;21.20;99.90;;;;;;4999147;28;20118;-76
2021/10/04 08:38:33;;;;;;;6.40;3.13;;;21.20;99.90;;;;;;5001099;28;20038;-78
2021/10/04 08:40:59;;;;;;;4.55;3.80;;;21.30;99.90;;;;;;5000111;28;20014;-77
2021/10/04 08:43:25;;;;;;;3.70;3.40;;;21.30;99.90;;;;;;4998742;28;20034;-77
2021/10/04 08:45:54;;;;;;;6.35;3.58;;;21.30;99.90;;;;;;5006098;28;20083;-77
2021/10/04 08:48:22;;;;;;;7.05;3.65;;;21.40;99.90;;;;;;5011247;28;20072;-77
2021/10/04 08:50:48;;;;;;;3.55;3.25;;;21.50;99.90;;;;;;5013111;28;20468;-77
2021/10/04 08:53:14;;;;;;;4.55;3.50;;;21.40;99.90;;;;;;5012900;28;20045;-77
2021/10/04 08:55:40;;;;;;;7.32;3.50;;;21.40;99.90;;;;;;5028119;28;20505;-77
2021/10/04 08:58:10;;;;;;;6.93;3.75;;;21.50;99.90;;;;;;5028310;28;20061;-76
2021/10/04 09:00:37;;;;;;;4.82;3.25;;;21.50;99.90;;;;;;5012723;28;20022;-77
2021/10/04 09:03:04;;;;;;;4.82;3.80;;;21.50;99.90;;;;;;5012737;28;20544;-77
2021/10/04 09:05:30;;;;;;;5.60;3.40;;;21.40;99.90;;;;;;5012936;28;20025;-77
2021/10/04 09:08:12;;;;;;;3.60;3.30;;;21.40;99.90;;;;;;5012412;28;20033;-77
2021/10/04 09:10:39;;;;;;;8.53;3.90;;;21.40;99.90;;;;;;5027759;28;20026;-77
2021/10/04 09:13:10;;;;;;;7.88;3.88;;;21.30;99.90;;;;;;5006309;28;20026;-77
2021/10/04 09:15:36;;;;;;;3.58;3.05;;;21.30;99.90;;;;;;5002452;28;20184;-77
2021/10/04 09:18:23;;;;;;;3.53;2.75;;;21.30;99.90;;;;;;5016252;28;20130;-77
2021/10/04 09:21:06;;;;;;;3.50;3.20;;;21.50;99.90;;;;;;5006057;28;20097;-77
2021/10/04 09:23:56;;;;;;;4.63;3.80;;;21.50;99.90;;;;;;5006397;28;20526;-75
2021/10/04 09:26:24;;;;;;;6.20;3.53;;;21.60;99.90;;;;;;4996424;28;20114;-75
2021/10/04 09:28:57;;;;;;;4.82;3.30;;;21.80;99.90;;;;;;4996259;28;20026;-75
2021/10/04 09:31:27;;;;;;;5.47;3.85;;;21.80;99.90;;;;;;4996375;28;20077;-75
2021/10/04 09:34:14;;;;;;;3.72;3.42;;;21.70;99.90;;;;;;5018177;28;20021;-75
2021/10/04 09:36:45;;;;;;;6.32;3.30;;;21.80;99.90;;;;;;5015916;28;20029;-75
2021/10/04 09:39:35;;;;;;;4.77;3.60;;;21.70;99.90;;;;;;5016005;28;20361;-75
2021/10/04 09:42:13;;;;;;;8.45;4.10;;;21.70;99.90;;;;;;5015833;28;20754;-76
2021/10/04 09:45:00;;;;;;;6.43;3.40;;;21.70;99.90;;;;;;5015672;28;20539;-76
2021/10/04 09:47:26;;;;;;;6.20;3.15;;;21.80;99.90;;;;;;5015652;28;20030;-75
2021/10/04 09:50:00;;;;;;;3.63;2.97;;;21.90;99.90;;;;;;5015539;28;20022;-76
2021/10/04 09:52:43;;;;;;;4.10;3.35;;;22.00;99.90;;;;;;5015490;28;20018;-76
2021/10/04 09:55:33;;;;;;;6.03;3.83;;;22.10;99.90;;;;;;5015696;28;20252;-76
2021/10/04 09:58:08;;;;;;;6.53;3.40;;;22.20;99.90;;;;;;5008289;28;20058;-76
2021/10/04 10:00:35;;;;;;;6.00;3.65;;;22.20;99.90;;;;;;5015540;28;20448;-76
2021/10/04 10:03:02;;;;;;;3.45;3.10;;;22.30;99.90;;;;;;5015313;28;20022;-75
2021/10/04 10:05:31;;;;;;;4.30;3.42;;;22.40;99.90;;;;;;4995753;28;20026;-76
2021/10/04 10:07:57;;;;;;;4.40;3.55;;;22.40;99.90;;;;;;4994406;28;20044;-76
2021/10/04 10:10:23;;;;;;;3.85;3.50;;;22.40;99.90;;;;;;4995417;28;20026;-76
2021/10/04 10:12:49;;;;;;;6.55;3.10;;;22.50;99.90;;;;;;4995491;28;20030;-76
2021/10/04 10:15:27;;;;;;;5.28;3.10;;;22.60;99.90;;;;;;4995569;28;20071;-76
2021/10/04 10:18:03;;;;;;;3.88;3.47;;;22.60;99.90;;;;;;4995779;28;20074;-76
2021/10/04 10:20:31;;;;;;;6.03;3.60;;;22.60;99.90;;;;;;4995507;28;20019;-76
2021/10/04 10:22:57;;;;;;;5.05;3.85;;;22.50;99.90;;;;;;4995305;28;20618;-76
2021/10/04 10:25:31;;;;;;;12.32;3.35;;;22.50;99.90;;;;;;4995429;28;20038;-76
2021/10/04 10:27:57;;;;;;;4.60;4.07;;;22.40;99.90;;;;;;4998129;28;20072;-76
2021/10/04 10:30:25;;;;;;;4.15;3.75;;;22.30;99.90;;;;;;4994778;28;20104;-76
2021/10/04 10:32:52;;;;;;;5.72;4.05;;;22.30;99.90;;;;;;4995206;28;20030;-76
2021/10/04 10:35:46;;;;;;;7.93;3.80;;;22.20;99.90;;;;;;5004568;28;20026;-76
2021/10/04 10:38:12;;;;;;;6.32;3.60;;;22.20;99.90;;;;;;5005114;28;20026;-76
2021/10/04 10:40:38;;;;;;;3.95;3.55;;;22.20;99.90;;;;;;4999540;28;20053;-75
2021/10/04 10:43:08;;;;;;;3.72;3.42;;;22.20;99.90;;;;;;4999758;28;20034;-76
2021/10/04 10:45:50;;;;;;;4.47;3.40;;;22.20;99.90;;;;;;5003060;28;20030;-76
2021/10/04 10:48:17;;;;;;;3.90;3.60;;;22.20;99.90;;;;;;5001513;28;20476;-76
2021/10/04 10:50:48;;;;;;;4.85;3.38;;;22.20;99.90;;;;;;5001302;28;20511;-76
2021/10/04 10:53:25;;;;;;;4.15;3.47;;;22.20;99.90;;;;;;5000471;28;20025;-76
2021/10/04 10:56:03;;;;;;;4.53;3.28;;;22.10;99.90;;;;;;5001612;28;20033;-76
2021/10/04 10:58:33;;;;;;;4.40;3.70;;;22.10;99.90;;;;;;5001793;28;20025;-76
2021/10/04 11:01:18;;;;;;;4.38;3.67;;;22.10;99.90;;;;;;5002035;28;20469;-76
2021/10/04 11:03:56;;;;;;;4.72;4.15;;;22.10;99.90;;;;;;5004618;28;20025;-75
2021/10/04 11:06:41;;;;;;;5.65;3.90;;;22.10;99.90;;;;;;5003054;28;20033;-76
2021/10/04 11:09:07;;;;;;;7.25;3.88;;;22.00;99.90;;;;;;5015406;28;20038;-75
2021/10/04 11:11:34;;;;;;;4.05;3.75;;;22.00;99.90;;;;;;4999392;28;20018;-75
2021/10/04 11:14:14;;;;;;;4.43;4.03;;;22.00;99.90;;;;;;5001342;28;20025;-76
2021/10/04 11:16:47;;;;;;;5.18;4.60;;;21.90;99.90;;;;;;4999425;28;20046;-76
2021/10/04 11:19:22;;;;;;;7.40;3.97;;;21.90;99.90;;;;;;5001296;28;20014;-75
2021/10/04 11:21:49;;;;;;;4.20;3.90;;;21.90;99.90;;;;;;5003130;28;20037;-75
2021/10/04 11:24:18;;;;;;;6.97;4.35;;;21.80;99.90;;;;;;5004641;28;20061;-75
2021/10/04 11:26:44;;;;;;;8.18;4.45;;;21.70;99.90;;;;;;5003731;28;20033;-78
2021/10/04 11:29:10;;;;;;;8.77;4.95;;;21.70;99.90;;;;;;4999905;28;20030;-77
2021/10/04 11:31:44;;;;;;;6.47;4.65;;;21.70;99.90;;;;;;4996482;28;20084;-78
2021/10/04 11:34:11;;;;;;;8.40;4.60;;;21.70;99.90;;;;;;5003125;28;20033;-77
2021/10/04 11:36:38;;;;;;;10.68;4.35;;;21.70;99.90;;;;;;5013626;28;20022;-78
2021/10/04 11:39:26;;;;;;;7.63;5.00;;;21.60;99.90;;;;;;5009693;28;20026;-76
2021/10/04 11:41:58;;;;;;;6.15;5.15;;;21.60;99.90;;;;;;4999995;28;20348;-76
2021/10/04 11:44:29;;;;;;;5.03;4.60;;;21.60;99.90;;;;;;4998921;28;20389;-77
2021/10/04 11:47:06;;;;;;;5.23;4.57;;;21.50;99.90;;;;;;5008864;28;20040;-76
2021/10/04 11:49:41;;;;;;;5.03;4.53;;;21.50;99.90;;;;;;5013927;28;20026;-77
2021/10/04 11:52:15;;;;;;;8.20;5.25;;;21.60;99.90;;;;;;4999209;28;20030;-76
2021/10/04 11:54:51;;;;;;;7.22;5.03;;;21.60;99.90;;;;;;4998615;28;20370;-77
2021/10/04 11:57:31;;;;;;;6.93;5.03;;;21.60;99.90;;;;;;4998203;28;20022;-78
2021/10/04 12:00:03;;;;;;;5.88;5.00;;;21.60;99.90;;;;;;4998245;28;20534;-78
2021/10/04 12:02:32;;;;;;;5.57;4.70;;;21.70;99.90;;;;;;4997441;28;20022;-77
2021/10/04 12:05:12;;;;;;;7.90;4.80;;;21.80;99.90;;;;;;5001541;28;20040;-77
2021/10/04 12:08:07;;;;;;;5.88;4.85;;;21.90;99.90;;;;;;5000561;28;20026;-77
2021/10/04 12:10:40;;;;;;;8.02;5.03;;;22.10;99.90;;;;;;4998601;28;20552;-77
2021/10/04 12:13:12;;;;;;;8.30;5.20;;;22.20;99.90;;;;;;4999402;28;20040;-78
2021/10/04 12:15:39;;;;;;;6.68;4.25;;;22.30;99.90;;;;;;4999028;28;20069;-79
2021/10/04 12:18:05;;;;;;;5.15;4.45;;;22.30;99.90;;;;;;4999229;28;20133;-79
2021/10/04 12:20:30;;;;;;;5.40;4.38;;;22.40;99.90;;;;;;4999274;28;20523;-78
2021/10/04 12:22:56;;;;;;;4.57;4.18;;;22.40;99.90;;;;;;4996015;28;20395;-76
2021/10/04 12:25:31;;;;;;;5.13;4.05;;;22.50;99.90;;;;;;4997982;28;20027;-76
2021/10/04 12:28:06;;;;;;;6.57;3.78;;;22.50;99.90;;;;;;4997158;28;20061;-76
2021/10/04 12:30:43;;;;;;;5.75;3.88;;;22.50;99.90;;;;;;4996760;28;20034;-77
2021/10/04 12:33:08;;;;;;;4.68;3.47;;;22.60;99.90;;;;;;4997711;28;20026;-76
2021/10/04 12:35:34;;;;;;;4.03;3.58;;;22.60;99.90;;;;;;5014823;28;20032;-77
2021/10/04 12:38:06;;;;;;;4.43;3.65;;;22.60;99.90;;;;;;4999004;28;20437;-77
2021/10/04 12:40:56;;;;;;;5.35;3.22;;;22.70;99.90;;;;;;4998782;28;20022;-76
2021/10/04 12:43:22;;;;;;;4.35;3.15;;;22.70;99.90;;;;;;4994353;28;20113;-76
2021/10/04 12:45:55;;;;;;;3.83;3.53;;;22.70;99.90;;;;;;5013011;28;20126;-76
2021/10/04 12:48:21;;;;;;;3.95;3.15;;;22.70;99.90;;;;;;5016079;28;20113;-77
2021/10/04 12:50:49;;;;;;;4.53;3.80;;;22.80;99.90;;;;;;5020681;28;20042;-76